createdAt,value
2018-01-30T00:02:16.601Z,0.70
2018-01-30T00:04:44.766Z,0.97
2018-01-30T00:07:12.805Z,1.03
2018-01-30T00:09:41.130Z,0.70
2018-01-30T00:12:09.454Z,0.87
2018-01-30T00:14:37.778Z,0.70
2018-01-30T00:17:06.111Z,0.97
2018-01-30T00:19:34.507Z,0.70
2018-01-30T00:22:02.817Z,1.00
2018-01-30T00:24:31.161Z,1.03
2018-01-30T00:27:00.450Z,0.97
2018-01-30T00:29:28.014Z,0.80
2018-01-30T00:31:56.323Z,0.77
2018-01-30T00:34:24.658Z,0.83
2018-01-30T00:36:52.972Z,0.70
2018-01-30T00:39:21.293Z,0.70
2018-01-30T00:41:50.362Z,1.70
2018-01-30T00:44:17.930Z,0.70
2018-01-30T00:46:46.291Z,0.70
2018-01-30T00:49:14.632Z,0.77
2018-01-30T00:51:42.935Z,0.70
2018-01-30T00:54:11.264Z,0.67
2018-01-30T00:56:38.803Z,1.23
2018-01-30T00:59:07.153Z,1.17
2018-01-30T01:01:34.694Z,0.70
2018-01-30T01:04:03.016Z,2.50
2018-01-30T01:06:30.549Z,12.10
2018-01-30T01:08:58.215Z,0.90
2018-01-30T01:11:25.761Z,0.83
2018-01-30T01:13:53.323Z,0.80
2018-01-30T01:16:21.271Z,0.70
2018-01-30T01:18:49.594Z,0.70
2018-01-30T01:21:17.139Z,1.10
2018-01-30T01:23:44.715Z,0.80
2018-01-30T01:26:12.262Z,0.80
2018-01-30T01:28:39.802Z,1.33
2018-01-30T01:31:07.366Z,0.80
2018-01-30T01:33:34.906Z,1.47
2018-01-30T01:36:03.244Z,0.70
2018-01-30T01:38:30.781Z,0.93
2018-01-30T01:40:58.341Z,0.80
2018-01-30T01:43:25.877Z,0.70
2018-01-30T01:45:53.438Z,0.60
2018-01-30T01:48:21.381Z,1.03
2018-01-30T01:50:49.344Z,4.50
2018-01-30T01:53:16.887Z,3.70
2018-01-30T01:55:45.970Z,0.60
2018-01-30T01:58:13.518Z,1.23
2018-01-30T02:00:42.294Z,0.83
2018-01-30T02:03:09.833Z,0.73
2018-01-30T02:05:37.393Z,0.73
2018-01-30T02:08:04.930Z,0.80
2018-01-30T02:10:33.260Z,1.90
2018-01-30T02:13:00.798Z,0.63
2018-01-30T02:15:28.384Z,1.20
2018-01-30T02:17:55.926Z,0.70
2018-01-30T02:20:23.874Z,0.70
2018-01-30T02:22:52.171Z,1.27
2018-01-30T02:25:20.130Z,1.03
2018-01-30T02:27:47.667Z,0.80
2018-01-30T02:30:15.621Z,0.83
2018-01-30T02:32:44.672Z,0.90
2018-01-30T02:35:12.244Z,1.33
2018-01-30T02:37:39.780Z,0.70
2018-01-30T02:40:07.360Z,0.93
2018-01-30T02:42:34.890Z,0.80
2018-01-30T02:45:02.453Z,0.70
2018-01-30T02:47:29.991Z,1.17
2018-01-30T02:49:58.337Z,1.87
2018-01-30T02:52:25.889Z,0.77
2018-01-30T02:54:53.830Z,0.90
2018-01-30T02:57:21.421Z,1.00
2018-01-30T02:59:48.966Z,0.87
2018-01-30T03:02:16.542Z,0.80
2018-01-30T03:04:44.173Z,0.70
2018-01-30T03:07:11.749Z,0.80
2018-01-30T03:09:39.307Z,0.70
2018-01-30T03:12:06.926Z,0.73
2018-01-30T03:14:35.242Z,1.20
2018-01-30T03:17:02.790Z,0.90
2018-01-30T03:19:30.397Z,0.90
2018-01-30T03:21:57.958Z,0.70
2018-01-30T03:24:25.502Z,1.43
2018-01-30T03:26:53.598Z,1.07
2018-01-30T03:29:21.896Z,1.00
2018-01-30T03:31:50.223Z,0.70
2018-01-30T03:34:17.766Z,0.70
2018-01-30T03:36:45.327Z,2.10
2018-01-30T03:39:12.875Z,1.50
2018-01-30T03:41:40.451Z,1.00
2018-01-30T03:44:07.983Z,0.80
2018-01-30T03:46:35.550Z,0.70
2018-01-30T03:49:03.088Z,0.70
2018-01-30T03:51:30.663Z,1.23
2018-01-30T03:53:58.272Z,0.70
2018-01-30T03:56:27.343Z,0.87
2018-01-30T03:58:54.891Z,1.97
2018-01-30T04:01:23.569Z,1.40
2018-01-30T04:03:51.525Z,1.73
2018-01-30T04:06:19.087Z,1.90
2018-01-30T04:08:46.645Z,0.60
2018-01-30T04:11:14.576Z,0.90
2018-01-30T04:13:42.139Z,0.70
2018-01-30T04:16:10.448Z,1.80
2018-01-30T04:18:38.021Z,0.70
2018-01-30T04:21:06.341Z,0.90
2018-01-30T04:23:34.316Z,1.63
2018-01-30T04:26:01.850Z,0.60
2018-01-30T04:28:29.412Z,0.70
2018-01-30T04:30:56.954Z,0.80
2018-01-30T04:33:24.517Z,0.63
2018-01-30T04:35:54.534Z,0.83
2018-01-30T04:38:22.103Z,0.60
2018-01-30T04:40:49.656Z,0.80
2018-01-30T04:43:17.214Z,1.13
2018-01-30T04:45:45.523Z,0.70
2018-01-30T04:48:13.094Z,0.83
2018-01-30T04:50:42.138Z,1.67
2018-01-30T04:53:09.707Z,6.57
2018-01-30T04:55:37.246Z,0.90
2018-01-30T04:58:04.809Z,0.97
2018-01-30T05:00:32.350Z,0.97
2018-01-30T05:02:59.914Z,5.50
2018-01-30T05:05:27.453Z,0.80
2018-01-30T05:07:55.023Z,2.97
2018-01-30T05:10:22.573Z,2.10
2018-01-30T05:12:50.171Z,0.83
2018-01-30T05:15:18.502Z,1.37
2018-01-30T05:17:46.063Z,0.83
2018-01-30T05:20:13.997Z,1.00
2018-01-30T05:22:42.306Z,0.90
2018-01-30T05:25:10.251Z,1.50
2018-01-30T05:27:38.551Z,1.87
2018-01-30T05:30:06.889Z,1.43
2018-01-30T05:32:35.976Z,1.20
2018-01-30T05:35:03.542Z,1.37
2018-01-30T05:37:31.843Z,2.93
2018-01-30T05:39:59.410Z,0.80
2018-01-30T05:42:26.949Z,0.90
2018-01-30T05:44:55.277Z,1.53
2018-01-30T05:47:23.222Z,0.90
2018-01-30T05:49:51.562Z,2.20
2018-01-30T05:52:19.926Z,1.20
2018-01-30T05:54:47.541Z,1.10
2018-01-30T05:57:15.843Z,1.63
2018-01-30T05:59:43.404Z,0.97
2018-01-30T06:02:11.394Z,1.10
2018-01-30T06:04:38.966Z,5.50
2018-01-30T06:07:07.277Z,1.40
2018-01-30T06:09:34.830Z,2.93
2018-01-30T06:12:02.913Z,1.67
2018-01-30T06:14:30.473Z,1.67
2018-01-30T06:16:58.798Z,2.00
2018-01-30T06:19:27.141Z,3.00
2018-01-30T06:21:54.705Z,2.07
2018-01-30T06:24:22.352Z,2.50
2018-01-30T06:26:50.295Z,2.90
2018-01-30T06:29:18.617Z,2.80
2018-01-30T06:31:46.167Z,3.40
2018-01-30T06:34:14.122Z,3.40
2018-01-30T06:36:41.661Z,2.90
2018-01-30T06:39:09.987Z,3.00
2018-01-30T06:41:37.535Z,3.03
2018-01-30T06:44:05.069Z,4.20
2018-01-30T06:46:33.390Z,4.23
2018-01-30T06:49:00.929Z,4.73
2018-01-30T06:51:28.517Z,3.70
2018-01-30T06:53:56.442Z,4.87
2018-01-30T06:56:24.024Z,3.80
2018-01-30T06:58:51.971Z,3.40
2018-01-30T07:01:19.547Z,3.47
2018-01-30T07:03:47.474Z,2.73
2018-01-30T07:06:15.787Z,3.37
2018-01-30T07:08:43.335Z,5.47
2018-01-30T07:11:10.899Z,4.73
2018-01-30T07:13:38.436Z,6.27
2018-01-30T07:16:05.997Z,4.13
2018-01-30T07:18:33.534Z,4.17
2018-01-30T07:21:01.867Z,4.47
2018-01-30T07:23:29.406Z,4.87
2018-01-30T07:25:57.178Z,5.53
2018-01-30T07:28:25.494Z,5.30
2018-01-30T07:30:53.051Z,4.30
2018-01-30T07:33:22.094Z,4.27
2018-01-30T07:35:49.690Z,4.80
2018-01-30T07:38:17.239Z,8.00
2018-01-30T07:40:45.207Z,3.77
2018-01-30T07:43:12.751Z,6.97
2018-01-30T07:45:40.306Z,4.73
2018-01-30T07:48:08.242Z,4.10
2018-01-30T07:50:36.576Z,4.60
2018-01-30T07:53:04.886Z,4.53
2018-01-30T07:55:33.957Z,3.97
2018-01-30T07:58:01.496Z,4.27
2018-01-30T08:00:29.050Z,5.93
2018-01-30T08:02:56.586Z,5.37
2018-01-30T08:05:24.906Z,5.63
2018-01-30T08:07:52.458Z,7.40
2018-01-30T08:10:21.133Z,5.77
2018-01-30T08:12:48.690Z,5.50
2018-01-30T08:15:16.238Z,5.03
2018-01-30T08:17:44.223Z,8.40
2018-01-30T08:20:11.766Z,4.20
2018-01-30T08:22:39.779Z,5.60
2018-01-30T08:25:07.318Z,3.77
2018-01-30T08:27:35.645Z,3.70
2018-01-30T08:30:03.966Z,6.60
2018-01-30T08:32:32.349Z,4.07
2018-01-30T08:35:00.673Z,4.93
2018-01-30T08:37:29.021Z,4.00
2018-01-30T08:39:57.373Z,4.17
2018-01-30T08:42:25.698Z,4.87
2018-01-30T08:44:54.010Z,5.20
2018-01-30T08:47:21.578Z,7.70
2018-01-30T08:49:49.514Z,5.50
2018-01-30T08:52:17.836Z,7.60
2018-01-30T08:54:46.135Z,5.93
2018-01-30T08:57:14.464Z,6.50
2018-01-30T08:59:42.893Z,5.53
2018-01-30T09:02:11.251Z,9.87
2018-01-30T09:04:38.786Z,5.13
2018-01-30T09:07:06.842Z,5.53
2018-01-30T09:09:34.775Z,4.50
2018-01-30T09:12:03.102Z,9.90
2018-01-30T09:14:31.502Z,4.13
2018-01-30T09:16:59.803Z,3.27
2018-01-30T09:19:28.145Z,5.93
2018-01-30T09:21:56.454Z,4.50
2018-01-30T09:24:24.811Z,11.27
2018-01-30T09:26:53.123Z,7.60
2018-01-30T09:29:21.466Z,4.13
2018-01-30T09:31:50.114Z,7.70
2018-01-30T09:34:18.121Z,4.60
2018-01-30T09:36:46.424Z,4.10
2018-01-30T09:39:14.747Z,4.70
2018-01-30T09:41:43.155Z,10.20
2018-01-30T09:44:11.470Z,4.27
2018-01-30T09:46:39.809Z,8.87
2018-01-30T09:49:08.168Z,4.57
2018-01-30T09:51:36.567Z,5.43
2018-01-30T09:54:04.885Z,4.90
2018-01-30T09:56:33.945Z,5.90
2018-01-30T09:59:01.600Z,4.60
2018-01-30T10:01:29.917Z,9.20
2018-01-30T10:03:58.981Z,6.80
2018-01-30T10:06:26.531Z,4.73
2018-01-30T10:08:54.918Z,5.30
2018-01-30T10:11:22.465Z,5.30
2018-01-30T10:13:50.415Z,7.83
2018-01-30T10:16:18.717Z,5.40
2018-01-30T10:18:47.076Z,7.53
2018-01-30T10:21:15.391Z,10.23
2018-01-30T10:23:43.716Z,11.33
2018-01-30T10:26:12.020Z,8.33
2018-01-30T10:28:40.329Z,7.10
2018-01-30T10:31:08.636Z,6.90
2018-01-30T10:33:36.968Z,7.03
2018-01-30T10:36:05.274Z,6.27
2018-01-30T10:38:33.574Z,6.63
2018-01-30T10:41:01.967Z,6.00
2018-01-30T10:43:30.347Z,6.80
2018-01-30T10:45:58.650Z,9.83
2018-01-30T10:48:26.954Z,9.43
2018-01-30T10:50:55.271Z,7.37
2018-01-30T10:53:23.656Z,7.43
2018-01-30T10:55:52.033Z,8.60
2018-01-30T10:58:20.333Z,6.23
2018-01-30T11:00:48.678Z,7.07
2018-01-30T11:03:16.990Z,9.00
2018-01-30T11:05:45.344Z,7.20
2018-01-30T11:08:13.725Z,6.07
2018-01-30T11:10:42.063Z,5.43
2018-01-30T11:13:10.482Z,8.50
2018-01-30T11:15:38.943Z,7.70
2018-01-30T11:18:07.249Z,5.93
2018-01-30T11:20:35.625Z,7.20
2018-01-30T11:23:03.565Z,6.10
2018-01-30T11:25:31.969Z,5.37
2018-01-30T11:27:59.505Z,7.13
2018-01-30T11:30:27.460Z,6.10
2018-01-30T11:32:55.761Z,6.57
2018-01-30T11:35:24.083Z,6.27
2018-01-30T11:37:53.117Z,7.13
2018-01-30T11:40:21.430Z,7.10
2018-01-30T11:42:50.109Z,7.93
2018-01-30T11:45:17.663Z,6.70
2018-01-30T11:47:45.966Z,8.50
2018-01-30T11:50:14.013Z,6.03
2018-01-30T11:52:42.357Z,7.63
2018-01-30T11:55:10.690Z,8.20
2018-01-30T11:57:39.014Z,6.30
2018-01-30T12:00:07.317Z,7.00
2018-01-30T12:02:35.638Z,7.33
2018-01-30T12:05:04.684Z,7.07
2018-01-30T12:07:32.666Z,8.50
2018-01-30T12:10:01.454Z,7.33
2018-01-30T12:12:29.023Z,8.43
2018-01-30T12:14:57.325Z,7.80
2018-01-30T12:17:25.645Z,8.20
2018-01-30T12:19:53.959Z,10.50
2018-01-30T12:22:22.291Z,7.23
2018-01-30T12:24:50.611Z,11.40
2018-01-30T12:27:19.018Z,7.30
2018-01-30T12:29:48.070Z,7.33
2018-01-30T12:32:16.762Z,8.13
2018-01-30T12:34:44.306Z,12.03
2018-01-30T12:37:12.478Z,6.60
2018-01-30T12:39:40.460Z,9.33
2018-01-30T12:42:08.838Z,7.20
2018-01-30T12:44:37.218Z,7.97
2018-01-30T12:47:05.591Z,7.50
2018-01-30T12:49:33.902Z,7.40
2018-01-30T12:52:02.252Z,6.80
2018-01-30T12:54:30.565Z,6.90
2018-01-30T12:56:58.893Z,6.53
2018-01-30T12:59:27.196Z,6.17
2018-01-30T13:01:55.527Z,8.57
2018-01-30T13:04:23.853Z,6.40
2018-01-30T13:06:51.530Z,6.17
2018-01-30T13:09:19.573Z,5.57
2018-01-30T13:11:47.910Z,6.27
2018-01-30T13:14:16.328Z,7.63
2018-01-30T13:16:44.690Z,4.90
2018-01-30T13:19:12.996Z,5.43
2018-01-30T13:21:41.347Z,5.67
2018-01-30T13:24:09.663Z,5.80
2018-01-30T13:26:37.975Z,5.57
2018-01-30T13:29:06.300Z,6.93
2018-01-30T13:31:34.622Z,5.83
2018-01-30T13:34:02.960Z,7.80
2018-01-30T13:36:31.258Z,4.73
2018-01-30T13:38:59.834Z,5.60
2018-01-30T13:41:27.770Z,5.67
2018-01-30T13:43:56.117Z,6.27
2018-01-30T13:46:24.427Z,8.80
2018-01-30T13:48:52.774Z,9.63
2018-01-30T13:51:21.102Z,6.10
2018-01-30T13:53:49.471Z,8.07
2018-01-30T13:56:17.774Z,8.50
2018-01-30T13:58:46.136Z,7.20
2018-01-30T14:01:14.507Z,6.10
2018-01-30T14:03:42.829Z,10.60
2018-01-30T14:06:11.412Z,9.27
2018-01-30T14:08:39.584Z,11.10
2018-01-30T14:11:07.930Z,7.67
2018-01-30T14:13:36.277Z,9.77
2018-01-30T14:16:04.235Z,8.50
2018-01-30T14:18:31.913Z,9.47
2018-01-30T14:21:00.260Z,8.63
2018-01-30T14:23:28.738Z,9.80
2018-01-30T14:25:56.723Z,11.50
2018-01-30T14:28:24.669Z,7.43
2018-01-30T14:30:52.961Z,8.03
2018-01-30T14:33:21.489Z,7.90
2018-01-30T14:35:49.433Z,6.57
2018-01-30T14:38:16.982Z,7.23
2018-01-30T14:40:44.926Z,7.33
2018-01-30T14:43:13.367Z,7.83
2018-01-30T14:45:41.303Z,7.93
2018-01-30T14:48:09.233Z,8.63
2018-01-30T14:50:37.216Z,7.97
2018-01-30T14:53:05.160Z,7.70
2018-01-30T14:55:34.222Z,7.60
2018-01-30T14:58:01.769Z,10.83
2018-01-30T15:00:30.124Z,11.80
2018-01-30T15:02:58.505Z,7.80
2018-01-30T15:05:26.819Z,9.30
2018-01-30T15:07:55.136Z,7.90
2018-01-30T15:10:23.457Z,9.70
2018-01-30T15:12:51.430Z,8.50
2018-01-30T15:15:19.847Z,14.17
2018-01-30T15:17:48.158Z,9.30
2018-01-30T15:20:16.605Z,11.17
2018-01-30T15:22:45.010Z,11.90
2018-01-30T15:25:13.337Z,7.90
2018-01-30T15:27:41.655Z,9.53
2018-01-30T15:30:10.012Z,7.53
2018-01-30T15:32:38.317Z,8.47
2018-01-30T15:35:07.427Z,7.97
2018-01-30T15:37:34.997Z,8.17
2018-01-30T15:40:02.978Z,7.70
2018-01-30T15:42:31.303Z,6.17
2018-01-30T15:44:59.757Z,6.03
2018-01-30T15:47:28.071Z,7.90
2018-01-30T15:49:57.132Z,10.07
2018-01-30T15:52:24.791Z,16.97
2018-01-30T15:54:53.126Z,16.43
2018-01-30T15:57:21.445Z,21.93
2018-01-30T15:59:49.782Z,18.97
2018-01-30T16:02:18.145Z,13.53
2018-01-30T16:04:46.463Z,13.20
2018-01-30T16:07:14.769Z,11.07
2018-01-30T16:09:43.125Z,7.70
2018-01-30T16:12:11.825Z,10.80
2018-01-30T16:14:39.357Z,7.93
2018-01-30T16:17:06.956Z,10.10
2018-01-30T16:19:34.902Z,8.87
2018-01-30T16:22:03.229Z,9.17
2018-01-30T16:24:31.526Z,9.60
2018-01-30T16:26:59.853Z,12.40
2018-01-30T16:29:28.165Z,9.57
2018-01-30T16:31:56.493Z,9.77
2018-01-30T16:34:24.839Z,9.07
2018-01-30T16:36:53.167Z,9.70
2018-01-30T16:39:21.510Z,9.53
2018-01-30T16:41:49.850Z,9.87
2018-01-30T16:44:17.787Z,11.27
2018-01-30T16:46:46.522Z,11.33
2018-01-30T16:49:14.855Z,9.57
2018-01-30T16:51:42.813Z,10.93
2018-01-30T16:54:11.137Z,13.17
2018-01-30T16:56:40.226Z,13.67
2018-01-30T16:59:07.777Z,12.73
2018-01-30T17:01:36.127Z,15.07
2018-01-30T17:04:04.450Z,12.43
2018-01-30T17:06:32.781Z,11.77
2018-01-30T17:09:01.091Z,12.90
2018-01-30T17:11:29.470Z,10.37
2018-01-30T17:13:58.521Z,13.07
2018-01-30T17:16:26.209Z,10.93
2018-01-30T17:18:54.566Z,13.67
2018-01-30T17:21:23.070Z,15.17
2018-01-30T17:23:51.001Z,12.10
2018-01-30T17:26:19.392Z,12.60
2018-01-30T17:28:47.693Z,12.20
2018-01-30T17:31:16.021Z,11.63
2018-01-30T17:33:44.335Z,11.90
2018-01-30T17:36:12.701Z,12.23
2018-01-30T17:38:41.054Z,12.50
2018-01-30T17:41:09.455Z,11.23
2018-01-30T17:43:37.783Z,10.67
2018-01-30T17:46:06.169Z,10.40
2018-01-30T17:48:34.496Z,17.10
2018-01-30T17:51:02.806Z,10.87
2018-01-30T17:53:31.865Z,12.30
2018-01-30T17:55:59.432Z,12.50
2018-01-30T17:58:27.754Z,10.60
2018-01-30T18:00:56.054Z,11.80
2018-01-30T18:03:24.416Z,12.70
2018-01-30T18:05:52.733Z,15.70
2018-01-30T18:08:21.150Z,17.00
2018-01-30T18:10:49.464Z,13.87
2018-01-30T18:13:17.786Z,14.93
2018-01-30T18:15:46.097Z,16.23
2018-01-30T18:18:14.443Z,15.03
2018-01-30T18:20:42.764Z,18.13
2018-01-30T18:23:11.101Z,17.77
2018-01-30T18:25:39.456Z,20.83
2018-01-30T18:28:07.799Z,14.03
2018-01-30T18:30:36.157Z,13.70
2018-01-30T18:33:04.269Z,13.80
2018-01-30T18:35:32.601Z,14.60
2018-01-30T18:38:01.598Z,15.83
2018-01-30T18:40:30.052Z,17.03
2018-01-30T18:42:57.637Z,21.73
2018-01-30T18:45:25.974Z,21.00
2018-01-30T18:47:54.313Z,20.30
2018-01-30T18:50:22.626Z,33.73
2018-01-30T18:52:50.969Z,22.07
2018-01-30T18:55:19.368Z,18.37
2018-01-30T18:57:48.438Z,21.13
2018-01-30T19:00:15.998Z,17.57
2018-01-30T19:02:44.349Z,22.83
2018-01-30T19:05:12.708Z,16.23
2018-01-30T19:07:41.037Z,19.20
2018-01-30T19:10:09.098Z,17.53
2018-01-30T19:12:37.453Z,18.00
2018-01-30T19:15:05.802Z,20.10
2018-01-30T19:17:34.119Z,21.83
2018-01-30T19:20:02.537Z,19.83
2018-01-30T19:22:31.654Z,14.67
2018-01-30T19:25:00.545Z,21.80
2018-01-30T19:27:28.920Z,17.20
2018-01-30T19:29:58.687Z,18.00
2018-01-30T19:32:27.096Z,20.40
2018-01-30T19:34:55.110Z,16.97
2018-01-30T19:37:23.509Z,17.60
2018-01-30T19:39:51.872Z,16.90
2018-01-30T19:42:20.222Z,17.40
2018-01-30T19:44:48.630Z,16.33
2018-01-30T19:47:16.993Z,16.60
2018-01-30T19:49:45.398Z,16.47
2018-01-30T19:52:13.469Z,17.70
2018-01-30T19:54:41.870Z,19.00
2018-01-30T19:57:10.198Z,18.90
2018-01-30T19:59:38.575Z,17.80
2018-01-30T20:02:06.886Z,17.33
2018-01-30T20:04:35.290Z,14.60
2018-01-30T20:07:03.666Z,14.33
2018-01-30T20:09:32.037Z,15.87
2018-01-30T20:12:00.350Z,15.03
2018-01-30T20:14:28.717Z,14.20
2018-01-30T20:16:57.106Z,16.53
2018-01-30T20:19:25.512Z,17.00
2018-01-30T20:21:53.833Z,16.63
2018-01-30T20:24:21.883Z,17.80
2018-01-30T20:26:50.360Z,20.97
2018-01-30T20:29:18.706Z,37.53
2018-01-30T20:31:47.100Z,30.80
2018-01-30T20:34:15.413Z,20.43
2018-01-30T20:36:44.170Z,22.70
2018-01-30T20:39:12.163Z,21.40
2018-01-30T20:41:40.489Z,19.93
2018-01-30T20:44:08.888Z,16.80
2018-01-30T20:46:37.251Z,20.77
2018-01-30T20:49:05.605Z,21.30
2018-01-30T20:51:33.988Z,17.70
2018-01-30T20:54:01.919Z,15.53
2018-01-30T20:56:29.567Z,17.30
2018-01-30T20:58:57.521Z,12.93
2018-01-30T21:01:25.896Z,14.57
2018-01-30T21:03:54.357Z,14.53
2018-01-30T21:06:22.417Z,14.77
2018-01-30T21:08:50.795Z,18.73
2018-01-30T21:11:19.122Z,13.60
2018-01-30T21:13:47.425Z,19.77
2018-01-30T21:16:15.824Z,20.03
2018-01-30T21:18:44.150Z,18.07
2018-01-30T21:21:12.628Z,18.27
2018-01-30T21:23:41.000Z,18.80
2018-01-30T21:26:09.334Z,17.40
2018-01-30T21:28:37.760Z,16.20
2018-01-30T21:31:05.890Z,14.67
2018-01-30T21:33:34.218Z,14.73
2018-01-30T21:36:02.606Z,14.43
2018-01-30T21:38:30.918Z,18.90
2018-01-30T21:40:59.251Z,15.70
2018-01-30T21:43:27.600Z,18.80
2018-01-30T21:45:55.975Z,20.43
2018-01-30T21:48:24.391Z,18.90
2018-01-30T21:50:52.780Z,15.67
2018-01-30T21:53:21.132Z,17.90
2018-01-30T21:55:49.492Z,17.50
2018-01-30T21:58:17.834Z,14.00
2018-01-30T22:00:46.195Z,14.47
2018-01-30T22:03:14.551Z,15.20
2018-01-30T22:05:42.874Z,15.13
2018-01-30T22:08:11.393Z,15.03
2018-01-30T22:10:39.304Z,12.07
2018-01-30T22:13:07.773Z,13.97
2018-01-30T22:15:37.143Z,14.13
2018-01-30T22:18:05.545Z,17.00
2018-01-30T22:20:33.856Z,15.83
2018-01-30T22:23:01.414Z,18.37
2018-01-30T22:25:29.348Z,18.83
2018-01-30T22:27:58.401Z,21.07
2018-01-30T22:30:25.955Z,17.97
2018-01-30T22:32:54.326Z,17.23
2018-01-30T22:35:22.676Z,15.90
2018-01-30T22:37:51.059Z,14.23
2018-01-30T22:40:19.374Z,16.23
2018-01-30T22:42:47.710Z,14.97
2018-01-30T22:45:16.093Z,13.97
